^^
Grace C. Lehan Memorial Weather Station Historical Data
Daily Summary for October 17, 2021 Units:  Both    English   Metric
Daily Weekly Monthly Yearly
  High: Low: Average:
Temperature: 65.3 °F /  18.5 °C 50.2 °F /  10.1 °C 56.5 °F /  13.6 °C
Dew Point: 56.5 °F /  13.6 °C 45.6 °F /  7.6 °C 50.9 °F /  10.5 °C
Humidity: 95% 58.3% 83%
Wind Speed: 6mph /  9.7km/h - 0.8mph /  1.3km/h
Wind Gust: 17mph /  27.4km/h - -
Wind- - WNW
Pressure: 29.76 in /  1007.7 hPa 29.64 in /  1003.6 hPa -
Precipitation: 0.00 in /  0 mm    
 
 
Tabular Data for October 17, 2021
Time Temperature Dew Point Pressure Wind Wind Speed Wind Gust Humidity Rainfall Rate (Hourly) solar
00:00 58.2 °F /  14.6 °C 56.5 °F /  13.6 °C 29.66in /  1004.3hPa Calm     94% 0.20in /  5.08mm 0 W/m2
00:09 58 °F /  14.4 °C 56.3 °F /  13.5 °C 29.65in /  1003.9hPa Calm     94% 0.20in /  5.08mm 0 W/m2
00:14 58 °F /  14.4 °C 56.3 °F /  13.5 °C 29.67in /  1004.6hPa Calm     94% 0.20in /  5.08mm 0 W/m2
00:19 58 °F /  14.4 °C 56.3 °F /  13.5 °C 29.67in /  1004.6hPa Calm     94% 0.21in /  5.33mm 0 W/m2
00:24 57.9 °F /  14.4 °C 56.2 °F /  13.4 °C 29.66in /  1004.3hPa Calm     94% 0.21in /  5.33mm 0 W/m2
00:29 57.9 °F /  14.4 °C 56.2 °F /  13.4 °C 29.67in /  1004.6hPa Calm     94% 0.21in /  5.33mm 0 W/m2
00:34 57.9 °F /  14.4 °C 56.2 °F /  13.4 °C 29.66in /  1004.3hPa Calm     94% 0.21in /  5.33mm 0 W/m2
00:39 58 °F /  14.4 °C 56.3 °F /  13.5 °C 29.66in /  1004.3hPa Calm     94% 0.04in /  1.02mm 0 W/m2
00:44 58 °F /  14.4 °C 56.3 °F /  13.5 °C 29.67in /  1004.6hPa Calm     94% 0.05in /  1.27mm 0 W/m2
00:49 58 °F /  14.4 °C 56.3 °F /  13.5 °C 29.65in /  1003.9hPa Calm     94% 0.05in /  1.27mm 0 W/m2
00:54 58 °F /  14.4 °C 56.3 °F /  13.5 °C 29.65in /  1003.9hPa Calm     94% 0.05in /  1.27mm 0 W/m2
00:59 57.9 °F /  14.4 °C 56.2 °F /  13.4 °C 29.65in /  1003.9hPa Calm     94% 0.05in /  1.27mm 0 W/m2
01:04 57.8 °F /  14.3 °C 56.1 °F /  13.4 °C 29.65in /  1003.9hPa Calm     94% 0.05in /  1.27mm 0 W/m2
01:09 57.7 °F /  14.3 °C 56 °F /  13.3 °C 29.66in /  1004.3hPa Calm     94% 0.03in /  0.76mm 0 W/m2
01:14 57.7 °F /  14.3 °C 56.1 °F /  13.4 °C 29.66in /  1004.3hPa Calm     94.5% 0.03in /  0.76mm 0 W/m2
01:19 57.6 °F /  14.2 °C 56.2 °F /  13.4 °C 29.64in /  1003.6hPa Calm     95% 0.03in /  0.76mm 0 W/m2
01:24 57.6 °F /  14.2 °C 56.2 °F /  13.4 °C 29.64in /  1003.6hPa Calm   1mph /  1.6km/h 95% 0.03in /  0.76mm 0 W/m2
01:29 57.5 °F /  14.2 °C 56 °F /  13.3 °C 29.64in /  1003.6hPa NNW 0.3mph /  0.5km/h 5mph /  8km/h 94.7% 0.03in /  0.76mm 0 W/m2
01:34 57.3 °F /  14.1 °C 55.6 °F /  13.1 °C 29.64in /  1003.6hPa NW 1.2mph /  1.9km/h 5mph /  8km/h 94% 0.03in /  0.76mm 0 W/m2
01:39 57.1 °F /  13.9 °C 55.4 °F /  13 °C 29.65in /  1003.9hPa WNW 0.9mph /  1.4km/h 9mph /  14.5km/h 94% 0.03in /  0.76mm 0 W/m2
01:44 56.9 °F /  13.8 °C 55.2 °F /  12.9 °C 29.67in /  1004.6hPa West 0.2mph /  0.3km/h 9mph /  14.5km/h 94% 0.03in /  0.76mm 0 W/m2
01:49 56.8 °F /  13.8 °C 55.2 °F /  12.9 °C 29.67in /  1004.6hPa Calm   9mph /  14.5km/h 94.2% 0.03in /  0.76mm 0 W/m2
01:54 56.8 °F /  13.8 °C 55.1 °F /  12.8 °C 29.67in /  1004.6hPa Calm   9mph /  14.5km/h 94.1% 0.03in /  0.76mm 0 W/m2
01:59 56.7 °F /  13.7 °C 55 °F /  12.8 °C 29.68in /  1005hPa Calm   9mph /  14.5km/h 94% 0.03in /  0.76mm 0 W/m2
02:04 56.7 °F /  13.7 °C 55 °F /  12.8 °C 29.68in /  1005hPa Calm   9mph /  14.5km/h 94% 0.03in /  0.76mm 0 W/m2
02:09 56.6 °F /  13.7 °C 55 °F /  12.8 °C 29.68in /  1005hPa Calm     94.5% 0.01in /  0.25mm 0 W/m2
02:14 56.5 °F /  13.6 °C 54.9 °F /  12.7 °C 29.67in /  1004.6hPa Calm     94.5% 0.01in /  0.25mm 0 W/m2
02:19 56.3 °F /  13.5 °C 54.8 °F /  12.7 °C 29.67in /  1004.6hPa Calm     94.4% 0.01in /  0.25mm 0 W/m2
02:24 56.2 °F /  13.4 °C 54.5 °F /  12.5 °C 29.67in /  1004.6hPa West 0.3mph /  0.5km/h 4mph /  6.4km/h 94% 0.01in /  0.25mm 0 W/m2
02:29 55.9 °F /  13.3 °C 54.2 °F /  12.3 °C 29.67in /  1004.6hPa Calm   4mph /  6.4km/h 94% 0.01in /  0.25mm 0 W/m2
02:34 55.7 °F /  13.2 °C 54 °F /  12.2 °C 29.67in /  1004.6hPa West 0.7mph /  1.1km/h 4mph /  6.4km/h 94% 0.01in /  0.25mm 0 W/m2
02:39 55.5 °F /  13.1 °C 53.8 °F /  12.1 °C 29.67in /  1004.6hPa Calm   4mph /  6.4km/h 94% 0.00in /  0mm 0 W/m2
02:44 55.3 °F /  12.9 °C 53.6 °F /  12 °C 29.67in /  1004.6hPa WNW 0.2mph /  0.3km/h 4mph /  6.4km/h 94% 0.00in /  0mm 0 W/m2
02:49 55.1 °F /  12.8 °C 53.4 °F /  11.9 °C 29.66in /  1004.3hPa Calm   4mph /  6.4km/h 94% 0.00in /  0mm 0 W/m2
02:54 54.9 °F /  12.7 °C 53.2 °F /  11.8 °C 29.66in /  1004.3hPa WNW 0.3mph /  0.5km/h 4mph /  6.4km/h 94% 0.00in /  0mm 0 W/m2
02:59 54.7 °F /  12.6 °C 53 °F /  11.7 °C 29.65in /  1003.9hPa WNW 0.2mph /  0.3km/h 4mph /  6.4km/h 94% 0.00in /  0mm 0 W/m2
03:04 54.5 °F /  12.5 °C 52.8 °F /  11.6 °C 29.65in /  1003.9hPa WNW 0.1mph /  0.2km/h 4mph /  6.4km/h 94% 0.00in /  0mm 0 W/m2
03:09 54.4 °F /  12.4 °C 52.7 °F /  11.5 °C 29.65in /  1003.9hPa WNW 0.1mph /  0.2km/h 2mph /  3.2km/h 94% 0.00in /  0mm 0 W/m2
03:14 54.2 °F /  12.3 °C 52.5 °F /  11.4 °C 29.65in /  1003.9hPa WNW 0.2mph /  0.3km/h 4mph /  6.4km/h 94% 0.00in /  0mm 0 W/m2
03:19 54.1 °F /  12.3 °C 52.4 °F /  11.3 °C 29.65in /  1003.9hPa Calm   4mph /  6.4km/h 94% 0.00in /  0mm 0 W/m2
03:24 53.9 °F /  12.2 °C 52.3 °F /  11.3 °C 29.65in /  1003.9hPa Calm   4mph /  6.4km/h 94% 0.00in /  0mm 0 W/m2
03:29 53.8 °F /  12.1 °C 52.2 °F /  11.2 °C 29.66in /  1004.3hPa Calm   4mph /  6.4km/h 94% 0.00in /  0mm 0 W/m2
03:34 53.7 °F /  12.1 °C 52 °F /  11.1 °C 29.66in /  1004.3hPa Calm   4mph /  6.4km/h 94% 0.00in /  0mm 0 W/m2
03:39 53.6 °F /  12 °C 52 °F /  11.1 °C 29.66in /  1004.3hPa Calm     94% 0.00in /  0mm 0 W/m2
03:44 53.5 °F /  11.9 °C 51.9 °F /  11.1 °C 29.66in /  1004.3hPa Calm     94% 0.00in /  0mm 0 W/m2
03:49 53.4 °F /  11.9 °C 51.7 °F /  10.9 °C 29.66in /  1004.3hPa Calm     94% 0.00in /  0mm 0 W/m2
03:54 53.3 °F /  11.8 °C 51.5 °F /  10.8 °C 29.66in /  1004.3hPa Calm     93.6% 0.00in /  0mm 0 W/m2
03:59 53.2 °F /  11.8 °C 51.6 °F /  10.9 °C 29.66in /  1004.3hPa Calm     94% 0.00in /  0mm 0 W/m2
04:00 53.2 °F /  11.8 °C 51.5 °F /  10.8 °C 29.66in /  1004.3hPa Calm     94% 0.00in /  0mm 0 W/m2
04:09 53 °F /  11.7 °C 51.3 °F /  10.7 °C 29.66in /  1004.3hPa Calm     94% 0.00in /  0mm 0 W/m2
04:14 52.9 °F /  11.6 °C 51.2 °F /  10.7 °C 29.67in /  1004.6hPa WNW 0.1mph /  0.2km/h 2mph /  3.2km/h 94% 0.00in /  0mm 0 W/m2
04:19 52.8 °F /  11.6 °C 51.1 °F /  10.6 °C 29.67in /  1004.6hPa Calm   2mph /  3.2km/h 94% 0.00in /  0mm 0 W/m2
04:24 52.7 °F /  11.5 °C 51.1 °F /  10.6 °C 29.67in /  1004.6hPa Calm   2mph /  3.2km/h 94% 0.00in /  0mm 0 W/m2
04:29 52.6 °F /  11.4 °C 50.9 °F /  10.5 °C 29.67in /  1004.6hPa Calm   2mph /  3.2km/h 94% 0.00in /  0mm 0 W/m2
04:34 52.4 °F /  11.3 °C 50.8 °F /  10.4 °C 29.67in /  1004.6hPa Calm   2mph /  3.2km/h 94% 0.00in /  0mm 0 W/m2
04:39 52.3 °F /  11.3 °C 50.6 °F /  10.3 °C 29.67in /  1004.6hPa Calm     94% 0.00in /  0mm 0 W/m2
04:44 52.2 °F /  11.2 °C 50.5 °F /  10.3 °C 29.67in /  1004.6hPa Calm     94% 0.00in /  0mm 0 W/m2
04:49 52.1 °F /  11.2 °C 50.4 °F /  10.2 °C 29.68in /  1005hPa Calm     94% 0.00in /  0mm 0 W/m2
04:54 52.1 °F /  11.2 °C 50.4 °F /  10.2 °C 29.68in /  1005hPa Calm     94% 0.00in /  0mm 0 W/m2
04:59 52 °F /  11.1 °C 50.3 °F /  10.2 °C 29.68in /  1005hPa Calm     94% 0.00in /  0mm 0 W/m2
05:04 51.9 °F /  11.1 °C 50.3 °F /  10.2 °C 29.68in /  1005hPa Calm     94% 0.00in /  0mm 0 W/m2
05:09 51.9 °F /  11.1 °C 50.2 °F /  10.1 °C 29.68in /  1005hPa Calm     94% 0.00in /  0mm 0 W/m2
05:14 51.8 °F /  11 °C 50.1 °F /  10.1 °C 29.69in /  1005.3hPa Calm     94% 0.00in /  0mm 0 W/m2
05:19 51.8 °F /  11 °C 50.1 °F /  10.1 °C 29.69in /  1005.3hPa Calm     94% 0.00in /  0mm 0 W/m2
05:24 51.7 °F /  10.9 °C 50.1 °F /  10.1 °C 29.69in /  1005.3hPa Calm     94% 0.00in /  0mm 0 W/m2
05:29 51.7 °F /  10.9 °C 50 °F /  10 °C 29.69in /  1005.3hPa Calm     94% 0.00in /  0mm 0 W/m2
05:34 51.5 °F /  10.8 °C 49.8 °F /  9.9 °C 29.69in /  1005.3hPa Calm     94% 0.01in /  0.25mm 0 W/m2
05:39 51.3 °F /  10.7 °C 49.7 °F /  9.8 °C 29.69in /  1005.3hPa Calm     94% 0.01in /  0.25mm 0 W/m2
05:44 51.2 °F /  10.7 °C 49.5 °F /  9.7 °C 29.69in /  1005.3hPa Calm     94% 0.01in /  0.25mm 0 W/m2
05:49 51.2 °F /  10.7 °C 49.7 °F /  9.8 °C 29.69in /  1005.3hPa Calm     94.6% 0.01in /  0.25mm 0 W/m2
05:54 51.2 °F /  10.7 °C 49.8 °F /  9.9 °C 29.69in /  1005.3hPa Calm     95% 0.01in /  0.25mm 0 W/m2
05:59 51.2 °F /  10.7 °C 49.8 °F /  9.9 °C 29.69in /  1005.3hPa Calm     95% 0.01in /  0.25mm 0 W/m2
06:04 51.1 °F /  10.6 °C 49.6 °F /  9.8 °C 29.69in /  1005.3hPa Calm     94.5% 0.01in /  0.25mm 0 W/m2
06:09 51 °F /  10.6 °C 49.3 °F /  9.6 °C 29.69in /  1005.3hPa Calm     94% 0.01in /  0.25mm 0 W/m2
06:14 50.9 °F /  10.5 °C 49.2 °F /  9.6 °C 29.70in /  1005.6hPa Calm     94% 0.01in /  0.25mm 0 W/m2
06:19 50.8 °F /  10.4 °C 49.3 °F /  9.6 °C 29.70in /  1005.6hPa Calm     94.6% 0.01in /  0.25mm 0 W/m2
06:24 50.7 °F /  10.4 °C 49.4 °F /  9.7 °C 29.70in /  1005.6hPa Calm     95% 0.01in /  0.25mm 0 W/m2
06:29 50.6 °F /  10.3 °C 49.3 °F /  9.6 °C 29.70in /  1005.6hPa Calm     95% 0.01in /  0.25mm 0 W/m2
06:34 50.6 °F /  10.3 °C 49.2 °F /  9.6 °C 29.70in /  1005.6hPa Calm     95% 0.01in /  0.25mm 0 W/m2
06:39 50.6 °F /  10.3 °C 49.2 °F /  9.6 °C 29.70in /  1005.6hPa Calm     95% 0.01in /  0.25mm 0 W/m2
06:44 50.6 °F /  10.3 °C 49.2 °F /  9.6 °C 29.70in /  1005.6hPa Calm     95% 0.01in /  0.25mm 0 W/m2
06:49 50.5 °F /  10.3 °C 49.2 °F /  9.6 °C 29.70in /  1005.6hPa Calm     95% 0.01in /  0.25mm 0 W/m2
06:54 50.5 °F /  10.3 °C 49.1 °F /  9.5 °C 29.70in /  1005.6hPa WNW 0.5mph /  0.8km/h 4mph /  6.4km/h 95% 0.01in /  0.25mm 0 W/m2
06:59 50.5 °F /  10.3 °C 49.1 °F /  9.5 °C 29.71in /  1006hPa WNW 0.2mph /  0.3km/h 4mph /  6.4km/h 95% 0.01in /  0.25mm 0 W/m2
07:04 50.4 °F /  10.2 °C 49.1 °F /  9.5 °C 29.71in /  1006hPa WNW 0.4mph /  0.6km/h 4mph /  6.4km/h 95% 0.01in /  0.25mm 0 W/m2
07:09 50.3 °F /  10.2 °C 49 °F /  9.4 °C 29.71in /  1006hPa WNW 0.2mph /  0.3km/h 4mph /  6.4km/h 95% 0.00in /  0mm 0 W/m2
07:14 50.3 °F /  10.2 °C 48.9 °F /  9.4 °C 29.71in /  1006hPa Calm   4mph /  6.4km/h 95% 0.00in /  0mm 5 W/m2
07:19 50.3 °F /  10.2 °C 48.9 °F /  9.4 °C 29.71in /  1006hPa Calm   4mph /  6.4km/h 95% 0.00in /  0mm 7 W/m2
07:24 50.2 °F /  10.1 °C 48.8 °F /  9.3 °C 29.71in /  1006hPa WNW 0.2mph /  0.3km/h 4mph /  6.4km/h 95% 0.00in /  0mm 9 W/m2
07:29 50.2 °F /  10.1 °C 48.8 °F /  9.3 °C 29.72in /  1006.3hPa WNW 0.6mph /  1km/h 5mph /  8km/h 95% 0.00in /  0mm 9 W/m2
07:34 50.2 °F /  10.1 °C 48.8 °F /  9.3 °C 29.72in /  1006.3hPa WNW 0.9mph /  1.4km/h 5mph /  8km/h 95% 0.00in /  0mm 11 W/m2
07:39 50.3 °F /  10.2 °C 48.9 °F /  9.4 °C 29.72in /  1006.3hPa Calm   4mph /  6.4km/h 95% 0.00in /  0mm 23 W/m2
07:44 50.4 °F /  10.2 °C 49 °F /  9.4 °C 29.72in /  1006.3hPa Calm   4mph /  6.4km/h 95% 0.00in /  0mm 21 W/m2
07:49 50.5 °F /  10.3 °C 49.1 °F /  9.5 °C 29.72in /  1006.3hPa WNW 0.2mph /  0.3km/h 4mph /  6.4km/h 95% 0.00in /  0mm 21 W/m2
07:54 50.6 °F /  10.3 °C 49.2 °F /  9.6 °C 29.72in /  1006.3hPa Calm   4mph /  6.4km/h 95% 0.00in /  0mm 23 W/m2
07:59 50.7 °F /  10.4 °C 49.3 °F /  9.6 °C 29.72in /  1006.3hPa Calm   4mph /  6.4km/h 94.7% 0.00in /  0mm 26 W/m2
08:00 50.8 °F /  10.4 °C 49.1 °F /  9.5 °C 29.72in /  1006.3hPa Calm   4mph /  6.4km/h 94% 0.00in /  0mm 21 W/m2
08:09 50.9 °F /  10.5 °C 49.3 °F /  9.6 °C 29.72in /  1006.3hPa Calm     94% 0.00in /  0mm 18 W/m2
08:14 51.1 °F /  10.6 °C 49.4 °F /  9.7 °C 29.72in /  1006.3hPa Calm     94% 0.00in /  0mm 19 W/m2
08:19 51.2 °F /  10.7 °C 49.5 °F /  9.7 °C 29.72in /  1006.3hPa Calm     94% 0.00in /  0mm 23 W/m2
08:24 51.3 °F /  10.7 °C 49.7 °F /  9.8 °C 29.72in /  1006.3hPa WNW 0.1mph /  0.2km/h 2mph /  3.2km/h 94% 0.00in /  0mm 25 W/m2
08:29 51.5 °F /  10.8 °C 49.9 °F /  9.9 °C 29.72in /  1006.3hPa West 0.9mph /  1.4km/h 4mph /  6.4km/h 94% 0.00in /  0mm 49 W/m2
08:34 51.8 °F /  11 °C 50.1 °F /  10.1 °C 29.72in /  1006.3hPa WNW 0.1mph /  0.2km/h 4mph /  6.4km/h 94% 0.00in /  0mm 49 W/m2
08:39 52 °F /  11.1 °C 50.4 °F /  10.2 °C 29.72in /  1006.3hPa West 0.5mph /  0.8km/h 4mph /  6.4km/h 94% 0.00in /  0mm 42 W/m2
08:44 52.3 °F /  11.3 °C 50.6 °F /  10.3 °C 29.72in /  1006.3hPa Calm   4mph /  6.4km/h 94% 0.00in /  0mm 123 W/m2
08:49 52.6 °F /  11.4 °C 50.9 °F /  10.5 °C 29.72in /  1006.3hPa Calm   4mph /  6.4km/h 94% 0.00in /  0mm 123 W/m2
08:54 53 °F /  11.7 °C 51.2 °F /  10.7 °C 29.73in /  1006.7hPa Calm   4mph /  6.4km/h 93.5% 0.00in /  0mm 288 W/m2
08:59 53.6 °F /  12 °C 51.5 °F /  10.8 °C 29.73in /  1006.7hPa WNW 0.4mph /  0.6km/h 5mph /  8km/h 92.5% 0.00in /  0mm 308 W/m2
09:04 54.5 °F /  12.5 °C 52.1 °F /  11.2 °C 29.73in /  1006.7hPa WNW 0.1mph /  0.2km/h 5mph /  8km/h 91.6% 0.00in /  0mm 323 W/m2
09:09 55.5 °F /  13.1 °C 52.7 °F /  11.5 °C 29.73in /  1006.7hPa WNW 0.3mph /  0.5km/h 4mph /  6.4km/h 90.3% 0.00in /  0mm 338 W/m2
09:14 56.5 °F /  13.6 °C 52.9 °F /  11.6 °C 29.73in /  1006.7hPa WNW 0.1mph /  0.2km/h 4mph /  6.4km/h 87.7% 0.00in /  0mm 355 W/m2
09:19 57.6 °F /  14.2 °C 53.6 °F /  12 °C 29.73in /  1006.7hPa WNW 0.4mph /  0.6km/h 4mph /  6.4km/h 86.3% 0.00in /  0mm 373 W/m2
09:24 58.6 °F /  14.8 °C 53.4 °F /  11.9 °C 29.73in /  1006.7hPa WNW 2.2mph /  3.5km/h 11mph /  17.7km/h 82.9% 0.00in /  0mm 387 W/m2
09:29 59.2 °F /  15.1 °C 52.8 °F /  11.6 °C 29.73in /  1006.7hPa NW 1.4mph /  2.3km/h 11mph /  17.7km/h 79.3% 0.00in /  0mm 404 W/m2
09:34 59.8 °F /  15.4 °C 53.2 °F /  11.8 °C 29.73in /  1006.7hPa NW 0.9mph /  1.4km/h 11mph /  17.7km/h 78.8% 0.00in /  0mm 420 W/m2
09:39 60.4 °F /  15.8 °C 53.3 °F /  11.8 °C 29.73in /  1006.7hPa North 0.2mph /  0.3km/h 6mph /  9.7km/h 77.3% 0.00in /  0mm 438 W/m2
09:44 61 °F /  16.1 °C 53.5 °F /  11.9 °C 29.73in /  1006.7hPa NNW 1mph /  1.6km/h 6mph /  9.7km/h 76.3% 0.00in /  0mm 450 W/m2
09:49 61.4 °F /  16.3 °C 53.2 °F /  11.8 °C 29.73in /  1006.7hPa NNW 1.6mph /  2.6km/h 8mph /  12.9km/h 74.4% 0.00in /  0mm 466 W/m2
09:54 61.7 °F /  16.5 °C 52.9 °F /  11.6 °C 29.73in /  1006.7hPa NW 0.3mph /  0.5km/h 8mph /  12.9km/h 72.8% 0.00in /  0mm 497 W/m2
09:59 62.1 °F /  16.7 °C 53.1 °F /  11.7 °C 29.73in /  1006.7hPa WNW 0.8mph /  1.3km/h 8mph /  12.9km/h 72.3% 0.00in /  0mm 499 W/m2
10:04 62.2 °F /  16.8 °C 53.2 °F /  11.8 °C 29.73in /  1006.7hPa Calm   8mph /  12.9km/h 72.2% 0.00in /  0mm 519 W/m2
10:09 62.6 °F /  17 °C 54 °F /  12.2 °C 29.73in /  1006.7hPa Calm     73.3% 0.00in /  0mm 598 W/m2
10:14 63.2 °F /  17.3 °C 54.1 °F /  12.3 °C 29.73in /  1006.7hPa WNW 0.7mph /  1.1km/h 4mph /  6.4km/h 72.3% 0.00in /  0mm 677 W/m2
10:19 63.5 °F /  17.5 °C 53.6 °F /  12 °C 29.73in /  1006.7hPa WNW 0.9mph /  1.4km/h 5mph /  8km/h 70.2% 0.00in /  0mm 677 W/m2
10:24 63.3 °F /  17.4 °C 52.6 °F /  11.4 °C 29.73in /  1006.7hPa WNW 4.4mph /  7.1km/h 11mph /  17.7km/h 68% 0.00in /  0mm 322 W/m2
10:29 62.5 °F /  16.9 °C 51.6 °F /  10.9 °C 29.73in /  1006.7hPa WNW 4.3mph /  6.9km/h 13mph /  20.9km/h 67.4% 0.00in /  0mm 717 W/m2
10:34 61.9 °F /  16.6 °C 51.7 °F /  10.9 °C 29.73in /  1006.7hPa WNW 2.7mph /  4.3km/h 13mph /  20.9km/h 69.2% 0.00in /  0mm 257 W/m2
10:39 61.4 °F /  16.3 °C 51.2 °F /  10.7 °C 29.73in /  1006.7hPa NW 1.8mph /  2.9km/h 11mph /  17.7km/h 69.1% 0.00in /  0mm 230 W/m2
10:44 61.3 °F /  16.3 °C 51.5 °F /  10.8 °C 29.73in /  1006.7hPa WNW 0.4mph /  0.6km/h 11mph /  17.7km/h 70.1% 0.00in /  0mm 698 W/m2
10:49 61.6 °F /  16.4 °C 51.9 °F /  11.1 °C 29.73in /  1006.7hPa NW 1.2mph /  1.9km/h 11mph /  17.7km/h 70.4% 0.00in /  0mm 698 W/m2
10:54 61.8 °F /  16.6 °C 51.3 °F /  10.7 °C 29.73in /  1006.7hPa NNW 1.2mph /  1.9km/h 11mph /  17.7km/h 68.2% 0.00in /  0mm 278 W/m2
10:59 61.8 °F /  16.6 °C 51.9 °F /  11.1 °C 29.73in /  1006.7hPa NNW 0.6mph /  1km/h 11mph /  17.7km/h 69.9% 0.00in /  0mm 278 W/m2
11:04 61.9 °F /  16.6 °C 51.8 °F /  11 °C 29.73in /  1006.7hPa NNW 0.8mph /  1.3km/h 11mph /  17.7km/h 69.3% 0.00in /  0mm 248 W/m2
11:09 62.2 °F /  16.8 °C 51.7 °F /  10.9 °C 29.73in /  1006.7hPa WNW 2mph /  3.2km/h 11mph /  17.7km/h 68.5% 0.00in /  0mm 248 W/m2
11:14 62.3 °F /  16.8 °C 51.7 °F /  10.9 °C 29.73in /  1006.7hPa NW 0.5mph /  0.8km/h 11mph /  17.7km/h 68.3% 0.00in /  0mm 181 W/m2
11:19 62 °F /  16.7 °C 50.4 °F /  10.2 °C 29.72in /  1006.3hPa NW 6mph /  9.7km/h 16mph /  25.7km/h 65.7% 0.00in /  0mm 130 W/m2
11:24 61.3 °F /  16.3 °C 50 °F /  10 °C 29.72in /  1006.3hPa WNW 4.1mph /  6.6km/h 16mph /  25.7km/h 66.3% 0.00in /  0mm 394 W/m2
11:29 61.3 °F /  16.3 °C 50.7 °F /  10.4 °C 29.72in /  1006.3hPa WNW 3.5mph /  5.6km/h 16mph /  25.7km/h 68.1% 0.00in /  0mm 394 W/m2
11:34 61.8 °F /  16.6 °C 51 °F /  10.6 °C 29.72in /  1006.3hPa NW 1.1mph /  1.8km/h 16mph /  25.7km/h 67.6% 0.00in /  0mm 571 W/m2
11:39 62.4 °F /  16.9 °C 51.7 °F /  10.9 °C 29.72in /  1006.3hPa NNW 0.5mph /  0.8km/h 6mph /  9.7km/h 68.1% 0.00in /  0mm 406 W/m2
11:44 62.9 °F /  17.2 °C 51.8 °F /  11 °C 29.72in /  1006.3hPa NW 0.8mph /  1.3km/h 6mph /  9.7km/h 67% 0.00in /  0mm 522 W/m2
11:49 63.6 °F /  17.6 °C 52.3 °F /  11.3 °C 29.71in /  1006hPa WNW 1.7mph /  2.7km/h 7mph /  11.3km/h 66.7% 0.00in /  0mm 496 W/m2
11:54 64 °F /  17.8 °C 51.7 °F /  10.9 °C 29.71in /  1006hPa West 2.9mph /  4.7km/h 12mph /  19.3km/h 64.2% 0.00in /  0mm 313 W/m2
11:59 63.9 °F /  17.7 °C 50.8 °F /  10.4 °C 29.71in /  1006hPa WNW 3.9mph /  6.3km/h 15mph /  24.1km/h 62.3% 0.00in /  0mm 313 W/m2
12:00 63.8 °F /  17.7 °C 51 °F /  10.6 °C 29.71in /  1006hPa Calm   15mph /  24.1km/h 63% 0.00in /  0mm 91 W/m2
12:09 64.1 °F /  17.8 °C 52 °F /  11.1 °C 29.71in /  1006hPa NW 1.4mph /  2.3km/h 16mph /  25.7km/h 64.7% 0.00in /  0mm 318 W/m2
12:14 64.5 °F /  18.1 °C 51.4 °F /  10.8 °C 29.71in /  1006hPa WNW 2.9mph /  4.7km/h 16mph /  25.7km/h 62.4% 0.00in /  0mm 824 W/m2
12:19 65 °F /  18.3 °C 51 °F /  10.6 °C 29.71in /  1006hPa WNW 5.6mph /  9km/h 16mph /  25.7km/h 60.7% 0.00in /  0mm 824 W/m2
12:24 64.9 °F /  18.3 °C 49.9 °F /  9.9 °C 29.70in /  1005.6hPa West 4mph /  6.4km/h 16mph /  25.7km/h 58.3% 0.00in /  0mm 237 W/m2
12:29 64.5 °F /  18.1 °C 50.4 °F /  10.2 °C 29.71in /  1006hPa WNW 4.7mph /  7.6km/h 16mph /  25.7km/h 60.1% 0.00in /  0mm 211 W/m2
12:34 64.4 °F /  18 °C 50.6 °F /  10.3 °C 29.70in /  1005.6hPa WNW 2.6mph /  4.2km/h 16mph /  25.7km/h 60.9% 0.00in /  0mm 188 W/m2
12:39 64.6 °F /  18.1 °C 50.6 °F /  10.3 °C 29.70in /  1005.6hPa West 3.9mph /  6.3km/h 15mph /  24.1km/h 60.3% 0.00in /  0mm 390 W/m2
12:44 65 °F /  18.3 °C 51 °F /  10.6 °C 29.70in /  1005.6hPa WNW 4.7mph /  7.6km/h 15mph /  24.1km/h 60.7% 0.00in /  0mm 323 W/m2
12:49 65.3 °F /  18.5 °C 51.1 °F /  10.6 °C 29.70in /  1005.6hPa WNW 2.3mph /  3.7km/h 15mph /  24.1km/h 60% 0.00in /  0mm 223 W/m2
12:54 65.3 °F /  18.5 °C 50.5 °F /  10.3 °C 29.70in /  1005.6hPa NW 3.1mph /  5km/h 15mph /  24.1km/h 58.8% 0.00in /  0mm 160 W/m2
12:59 64.8 °F /  18.2 °C 50.1 °F /  10.1 °C 29.70in /  1005.6hPa NW 1.9mph /  3.1km/h 15mph /  24.1km/h 59% 0.00in /  0mm 155 W/m2
13:04 64.2 °F /  17.9 °C 50.2 °F /  10.1 °C 29.69in /  1005.3hPa NW 2.3mph /  3.7km/h 15mph /  24.1km/h 60.4% 0.00in /  0mm 142 W/m2
13:09 63.7 °F /  17.6 °C 49.9 °F /  9.9 °C 29.69in /  1005.3hPa WNW 1.6mph /  2.6km/h 7mph /  11.3km/h 60.9% 0.00in /  0mm 181 W/m2
13:14 63.3 °F /  17.4 °C 49.4 °F /  9.7 °C 29.69in /  1005.3hPa WNW 3.5mph /  5.6km/h 12mph /  19.3km/h 60.5% 0.00in /  0mm 234 W/m2
13:19 63.2 °F /  17.3 °C 49.6 °F /  9.8 °C 29.69in /  1005.3hPa West 3.4mph /  5.5km/h 12mph /  19.3km/h 61.2% 0.00in /  0mm 167 W/m2
13:24 63 °F /  17.2 °C 49.9 °F /  9.9 °C 29.69in /  1005.3hPa WNW 1.6mph /  2.6km/h 12mph /  19.3km/h 62.2% 0.00in /  0mm 121 W/m2
13:29 62.9 °F /  17.2 °C 50 °F /  10 °C 29.69in /  1005.3hPa WNW 0.3mph /  0.5km/h 12mph /  19.3km/h 62.7% 0.00in /  0mm 100 W/m2
13:34 62.8 °F /  17.1 °C 49.6 °F /  9.8 °C 29.69in /  1005.3hPa West 2.3mph /  3.7km/h 12mph /  19.3km/h 62% 0.00in /  0mm 130 W/m2
13:39 62.5 °F /  16.9 °C 49.3 °F /  9.6 °C 29.69in /  1005.3hPa West 2.1mph /  3.4km/h 8mph /  12.9km/h 61.9% 0.00in /  0mm 162 W/m2
13:44 62.3 °F /  16.8 °C 49.7 °F /  9.8 °C 29.69in /  1005.3hPa West 2.6mph /  4.2km/h 10mph /  16.1km/h 63.3% 0.00in /  0mm 162 W/m2
13:49 62.2 °F /  16.8 °C 49.2 °F /  9.6 °C 29.68in /  1005hPa WNW 3mph /  4.8km/h 10mph /  16.1km/h 62.4% 0.00in /  0mm 114 W/m2
13:54 62 °F /  16.7 °C 49.7 °F /  9.8 °C 29.68in /  1005hPa WNW 1.9mph /  3.1km/h 10mph /  16.1km/h 64% 0.00in /  0mm 109 W/m2
13:59 61.9 °F /  16.6 °C 49.1 °F /  9.5 °C 29.68in /  1005hPa WNW 2mph /  3.2km/h 10mph /  16.1km/h 63% 0.00in /  0mm 111 W/m2
14:02 61.8 °F /  16.6 °C 49.4 °F /  9.7 °C 29.68in /  1005hPa Calm   10mph /  16.1km/h 63.8% 0.00in /  0mm 105 W/m2
15:00 62.6 °F /  17 °C 49.4 °F /  9.7 °C 29.67in /  1004.6hPa WNW 3mph /  4.8km/h 13mph /  20.9km/h 62% 0.00in /  0mm 126 W/m2
15:30 61.5 °F /  16.4 °C 48.4 °F /  9.1 °C 29.68in /  1005hPa WNW 5mph /  8km/h 17mph /  27.4km/h 62% 0.00in /  0mm 94 W/m2
16:04 60.8 °F /  16 °C 49.4 °F /  9.7 °C 29.69in /  1005.3hPa WNW 0.4mph /  0.6km/h 17mph /  27.4km/h 66.1% 0.00in /  0mm 94 W/m2
16:09 60.7 °F /  15.9 °C 49.7 °F /  9.8 °C 29.69in /  1005.3hPa West 0.1mph /  0.2km/h 5mph /  8km/h 67% 0.00in /  0mm 76 W/m2
16:14 60.7 °F /  15.9 °C 49.7 °F /  9.8 °C 29.69in /  1005.3hPa West 0.7mph /  1.1km/h 5mph /  8km/h 67% 0.00in /  0mm 63 W/m2
16:19 60.6 °F /  15.9 °C 49.7 °F /  9.8 °C 29.69in /  1005.3hPa WSW 0.7mph /  1.1km/h 6mph /  9.7km/h 67.2% 0.00in /  0mm 63 W/m2
16:24 60.5 °F /  15.8 °C 49.8 °F /  9.9 °C 29.69in /  1005.3hPa WSW 0.5mph /  0.8km/h 6mph /  9.7km/h 67.9% 0.00in /  0mm 69 W/m2
16:29 60.4 °F /  15.8 °C 50.1 °F /  10.1 °C 29.69in /  1005.3hPa WSW 0.7mph /  1.1km/h 7mph /  11.3km/h 68.8% 0.00in /  0mm 67 W/m2
16:34 60.2 °F /  15.7 °C 50.2 °F /  10.1 °C 29.69in /  1005.3hPa WSW 0.2mph /  0.3km/h 7mph /  11.3km/h 69.4% 0.00in /  0mm 44 W/m2
16:39 60.1 °F /  15.6 °C 50.6 °F /  10.3 °C 29.69in /  1005.3hPa WSW 0.1mph /  0.2km/h 4mph /  6.4km/h 70.6% 0.00in /  0mm 62 W/m2
16:44 60 °F /  15.6 °C 50.6 °F /  10.3 °C 29.69in /  1005.3hPa Calm   4mph /  6.4km/h 71% 0.00in /  0mm 58 W/m2
16:49 60 °F /  15.6 °C 50.7 °F /  10.4 °C 29.68in /  1005hPa Calm   4mph /  6.4km/h 71.4% 0.00in /  0mm 47 W/m2
16:54 59.9 °F /  15.5 °C 50.6 °F /  10.3 °C 29.68in /  1005hPa WSW 0.1mph /  0.2km/h 4mph /  6.4km/h 71.3% 0.00in /  0mm 28 W/m2
16:59 59.8 °F /  15.4 °C 50.6 °F /  10.3 °C 29.68in /  1005hPa WSW 0.2mph /  0.3km/h 4mph /  6.4km/h 71.7% 0.00in /  0mm 28 W/m2
17:04 59.6 °F /  15.3 °C 50.6 °F /  10.3 °C 29.68in /  1005hPa WSW 0.1mph /  0.2km/h 4mph /  6.4km/h 72% 0.00in /  0mm 28 W/m2
17:09 59.5 °F /  15.3 °C 50.5 °F /  10.3 °C 29.68in /  1005hPa WSW 0.2mph /  0.3km/h 4mph /  6.4km/h 72% 0.00in /  0mm 21 W/m2
17:14 59.4 °F /  15.2 °C 50.1 °F /  10.1 °C 29.68in /  1005hPa WSW 0.2mph /  0.3km/h 5mph /  8km/h 71.4% 0.00in /  0mm 18 W/m2
17:19 59.3 °F /  15.2 °C 50.1 °F /  10.1 °C 29.68in /  1005hPa Calm   5mph /  8km/h 71.5% 0.00in /  0mm 16 W/m2
17:24 59.3 °F /  15.2 °C 50.3 °F /  10.2 °C 29.69in /  1005.3hPa Calm   5mph /  8km/h 72% 0.00in /  0mm 16 W/m2
17:29 59.3 °F /  15.2 °C 50.3 °F /  10.2 °C 29.69in /  1005.3hPa Calm   5mph /  8km/h 72.1% 0.00in /  0mm 14 W/m2
17:34 59.3 °F /  15.2 °C 50.7 °F /  10.4 °C 29.69in /  1005.3hPa Calm   5mph /  8km/h 73.1% 0.00in /  0mm 12 W/m2
17:39 59.2 °F /  15.1 °C 50.9 °F /  10.5 °C 29.69in /  1005.3hPa Calm     74% 0.00in /  0mm 11 W/m2
17:44 59.1 °F /  15.1 °C 50.8 °F /  10.4 °C 29.69in /  1005.3hPa Calm     74% 0.00in /  0mm 9 W/m2
17:49 59 °F /  15 °C 50.9 °F /  10.5 °C 29.69in /  1005.3hPa Calm     74.4% 0.00in /  0mm 7 W/m2
17:54 58.9 °F /  14.9 °C 50.6 °F /  10.3 °C 29.69in /  1005.3hPa Calm     74% 0.00in /  0mm 5 W/m2
17:59 58.7 °F /  14.8 °C 50.7 °F /  10.4 °C 29.69in /  1005.3hPa Calm     74.9% 0.00in /  0mm 0 W/m2
18:04 58.5 °F /  14.7 °C 50.6 °F /  10.3 °C 29.69in /  1005.3hPa Calm     75% 0.00in /  0mm 0 W/m2
18:09 58.3 °F /  14.6 °C 50.4 °F /  10.2 °C 29.70in /  1005.6hPa Calm     75% 0.00in /  0mm 0 W/m2
18:14 58.1 °F /  14.5 °C 50.4 °F /  10.2 °C 29.70in /  1005.6hPa Calm     75.6% 0.00in /  0mm 0 W/m2
18:19 57.9 °F /  14.4 °C 50.7 °F /  10.4 °C 29.70in /  1005.6hPa Calm     76.9% 0.00in /  0mm 0 W/m2
18:24 57.7 °F /  14.3 °C 50.6 °F /  10.3 °C 29.70in /  1005.6hPa Calm     77% 0.00in /  0mm 0 W/m2
18:29 57.6 °F /  14.2 °C 50.8 °F /  10.4 °C 29.70in /  1005.6hPa Calm     78.1% 0.00in /  0mm 0 W/m2
18:34 57.4 °F /  14.1 °C 51.1 °F /  10.6 °C 29.72in /  1006.3hPa NW 2.2mph /  3.5km/h 17mph /  27.4km/h 79.6% 0.00in /  0mm 0 W/m2
18:39 56.9 °F /  13.8 °C 50.8 °F /  10.4 °C 29.72in /  1006.3hPa NW 5.3mph /  8.5km/h 17mph /  27.4km/h 80% 0.01in /  0.25mm 0 W/m2
18:44 56 °F /  13.3 °C 50.2 °F /  10.1 °C 29.73in /  1006.7hPa NW 5.7mph /  9.2km/h 17mph /  27.4km/h 80.8% 0.02in /  0.51mm 0 W/m2
18:49 55.2 °F /  12.9 °C 49.9 °F /  9.9 °C 29.73in /  1006.7hPa NW 4mph /  6.4km/h 17mph /  27.4km/h 82.2% 0.02in /  0.51mm 0 W/m2
18:54 54.6 °F /  12.6 °C 49.7 °F /  9.8 °C 29.73in /  1006.7hPa WNW 3.8mph /  6.1km/h 17mph /  27.4km/h 83.6% 0.02in /  0.51mm 0 W/m2
18:59 54.2 °F /  12.3 °C 49.8 °F /  9.9 °C 29.73in /  1006.7hPa West 2.4mph /  3.9km/h 17mph /  27.4km/h 85% 0.02in /  0.51mm 0 W/m2
19:04 53.9 °F /  12.2 °C 49.8 °F /  9.9 °C 29.73in /  1006.7hPa WNW 4.2mph /  6.8km/h 17mph /  27.4km/h 86% 0.02in /  0.51mm 0 W/m2
19:09 53.6 °F /  12 °C 49.5 °F /  9.7 °C 29.73in /  1006.7hPa NW 2.5mph /  4km/h 13mph /  20.9km/h 86% 0.03in /  0.76mm 0 W/m2
19:14 53.4 °F /  11.9 °C 49.4 °F /  9.7 °C 29.73in /  1006.7hPa WNW 2.4mph /  3.9km/h 13mph /  20.9km/h 86% 0.03in /  0.76mm 0 W/m2
19:19 53.2 °F /  11.8 °C 49.2 °F /  9.6 °C 29.73in /  1006.7hPa WNW 5.2mph /  8.4km/h 14mph /  22.5km/h 86% 0.03in /  0.76mm 0 W/m2
19:24 53 °F /  11.7 °C 48.6 °F /  9.2 °C 29.73in /  1006.7hPa West 2.4mph /  3.9km/h 14mph /  22.5km/h 85% 0.03in /  0.76mm 0 W/m2
19:29 52.9 °F /  11.6 °C 48.5 °F /  9.2 °C 29.73in /  1006.7hPa West 2.5mph /  4km/h 14mph /  22.5km/h 85% 0.03in /  0.76mm 0 W/m2
19:34 52.8 °F /  11.6 °C 48.3 °F /  9.1 °C 29.73in /  1006.7hPa WNW 2.5mph /  4km/h 14mph /  22.5km/h 84.7% 0.03in /  0.76mm 0 W/m2
19:39 52.7 °F /  11.5 °C 48 °F /  8.9 °C 29.73in /  1006.7hPa West 1.5mph /  2.4km/h 12mph /  19.3km/h 84% 0.03in /  0.76mm 0 W/m2
19:44 52.7 °F /  11.5 °C 48.1 °F /  8.9 °C 29.74in /  1007hPa West 1.1mph /  1.8km/h 12mph /  19.3km/h 84.4% 0.03in /  0.76mm 0 W/m2
19:49 52.7 °F /  11.5 °C 48.1 °F /  8.9 °C 29.74in /  1007hPa Calm   12mph /  19.3km/h 84.3% 0.03in /  0.76mm 0 W/m2
19:54 52.7 °F /  11.5 °C 48.4 °F /  9.1 °C 29.74in /  1007hPa West 0.5mph /  0.8km/h 12mph /  19.3km/h 85% 0.03in /  0.76mm 0 W/m2
19:59 52.8 °F /  11.6 °C 48.3 °F /  9.1 °C 29.74in /  1007hPa West 0.3mph /  0.5km/h 12mph /  19.3km/h 84.8% 0.03in /  0.76mm 0 W/m2
20:04 52.8 °F /  11.6 °C 48.1 °F /  8.9 °C 29.74in /  1007hPa Calm     84% 0.03in /  0.76mm 0 W/m2
20:09 52.8 °F /  11.6 °C 48.1 °F /  8.9 °C 29.74in /  1007hPa WNW 1.3mph /  2.1km/h 6mph /  9.7km/h 84% 0.03in /  0.76mm 0 W/m2
20:14 52.9 °F /  11.6 °C 48.2 °F /  9 °C 29.74in /  1007hPa WNW 0.2mph /  0.3km/h 6mph /  9.7km/h 84% 0.03in /  0.76mm 0 W/m2
20:19 52.9 °F /  11.6 °C 48.2 °F /  9 °C 29.74in /  1007hPa West 1mph /  1.6km/h 6mph /  9.7km/h 84% 0.03in /  0.76mm 0 W/m2
20:24 53 °F /  11.7 °C 48.2 °F /  9 °C 29.74in /  1007hPa NNW 1.1mph /  1.8km/h 8mph /  12.9km/h 83.8% 0.03in /  0.76mm 0 W/m2
20:29 53 °F /  11.7 °C 48 °F /  8.9 °C 29.75in /  1007.3hPa NW 0.5mph /  0.8km/h 8mph /  12.9km/h 83% 0.03in /  0.76mm 0 W/m2
20:34 53 °F /  11.7 °C 48 °F /  8.9 °C 29.75in /  1007.3hPa WNW 0.2mph /  0.3km/h 8mph /  12.9km/h 83% 0.03in /  0.76mm 0 W/m2
20:39 53 °F /  11.7 °C 47.7 °F /  8.7 °C 29.75in /  1007.3hPa WNW 0.2mph /  0.3km/h 4mph /  6.4km/h 82.1% 0.00in /  0mm 0 W/m2
20:44 53 °F /  11.7 °C 47.7 °F /  8.7 °C 29.75in /  1007.3hPa WNW 0.8mph /  1.3km/h 6mph /  9.7km/h 82.2% 0.00in /  0mm 0 W/m2
20:49 53 °F /  11.7 °C 47.7 °F /  8.7 °C 29.75in /  1007.3hPa WNW 0.9mph /  1.4km/h 6mph /  9.7km/h 82% 0.00in /  0mm 0 W/m2
20:54 53 °F /  11.7 °C 47.7 °F /  8.7 °C 29.75in /  1007.3hPa Calm   6mph /  9.7km/h 82% 0.00in /  0mm 0 W/m2
20:59 52.9 °F /  11.6 °C 47.4 °F /  8.6 °C 29.76in /  1007.7hPa Calm   6mph /  9.7km/h 81.5% 0.00in /  0mm 0 W/m2
21:04 52.9 °F /  11.6 °C 47.3 °F /  8.5 °C 29.76in /  1007.7hPa WNW 0.2mph /  0.3km/h 6mph /  9.7km/h 81.2% 0.00in /  0mm 0 W/m2
21:09 52.8 °F /  11.6 °C 47.2 °F /  8.4 °C 29.76in /  1007.7hPa Calm   3mph /  4.8km/h 81.1% 0.00in /  0mm 0 W/m2
21:14 52.8 °F /  11.6 °C 47.1 °F /  8.4 °C 29.76in /  1007.7hPa WNW 0.7mph /  1.1km/h 5mph /  8km/h 81% 0.00in /  0mm 0 W/m2
21:19 52.7 °F /  11.5 °C 47 °F /  8.3 °C 29.76in /  1007.7hPa Calm   5mph /  8km/h 81% 0.00in /  0mm 0 W/m2
21:24 52.7 °F /  11.5 °C 47.3 °F /  8.5 °C 29.76in /  1007.7hPa WNW 0.3mph /  0.5km/h 5mph /  8km/h 81.9% 0.00in /  0mm 0 W/m2
21:29 52.6 °F /  11.4 °C 47.3 °F /  8.5 °C 29.76in /  1007.7hPa Calm   5mph /  8km/h 82.1% 0.00in /  0mm 0 W/m2
21:34 52.6 °F /  11.4 °C 47.3 °F /  8.5 °C 29.76in /  1007.7hPa WSW 0.6mph /  1km/h 7mph /  11.3km/h 82.4% 0.00in /  0mm 0 W/m2
21:35 52.5 °F /  11.4 °C 47.2 °F /  8.4 °C 29.76in /  1007.7hPa SW 0.4mph /  0.6km/h 7mph /  11.3km/h 82% 0.00in /  0mm 0 W/m2
22:00 52.3 °F /  11.3 °C 47 °F /  8.3 °C 29.76in /  1007.7hPa West 1mph /  1.6km/h 8mph /  12.9km/h 82% 0.00in /  0mm 0 W/m2
22:30 52 °F /  11.1 °C 46.4 °F /  8 °C 29.76in /  1007.7hPa Calm   7mph /  11.3km/h 81% 0.00in /  0mm 0 W/m2
23:00 51.7 °F /  10.9 °C 46.1 °F /  7.8 °C 29.75in /  1007.3hPa Calm   6mph /  9.7km/h 81% 0.00in /  0mm 0 W/m2
23:30 50.9 °F /  10.5 °C 45.6 °F /  7.6 °C 29.75in /  1007.3hPa West 1mph /  1.6km/h 9mph /  14.5km/h 82% 0.00in /  0mm 0 W/m2
Hartford County Weather
Compliments of Weather Underground - 2 mb